Spangler, PA

04:01 PM EDT del 20 Settembre 2014 (GMT -0400)
Indiana County-Stewart | Change Station
CLOSE
Current Station
Aeroporto
Location: Indiana,
Altitudine: 1407 ft
Stazioni meteo nelle vicinanze

Alt. 1407 ft 40.63 °N, 79.11 °W | Updated 26 minutes ago

Parzialmente nuvoloso
Parzialmente nuvoloso
79 °F
Sembra 79 °F
N
10
Vento Variabile Vento da SO
Gusts 17 mph

Oggi
Massima -- | Minima -- °F
--% Possibilità di precip.
Ieri
Massima -- | Minima -- °F
Precip. -- in
7:00 AM 7:15 PM
Luna calante, 11% visible
Pressione 30.10 in
Visibilità 10.0 miglia
Nuvole Alcuni 4100 ft
Alcuni 4700 ft
Punto di rugiada 61 °F
Umidità 54%
Piovosità 0.00 in
Spessore del manto nevoso Non disponibile.
Raggi UV 5 fuori da 12
Polline 4.20 fuori da 12
Qualità dell'aria Non disponibile.
Flu Activity Non disponibile.
METAR KIDI 201935Z AUTO 22009G15KT 10SM FEW041 FEW047 26/16 A3010 RMK A01

More Conditions Fewer Conditions

Pressione 30.10 in
Visibilità 10.0 miglia
Nuvole Alcuni 4100 ft
Alcuni 4700 ft
Punto di rugiada 61 °F
Umidità 54%
Piovosità 0.00 in
Spessore del manto nevoso Non disponibile.
Raggi UV 5 fuori da 12
Polline 4.20 fuori da 12
Qualità dell'aria Non disponibile.
Flu Activity Non disponibile.
METAR KIDI 201935Z AUTO 22009G15KT 10SM FEW041 FEW047 26/16 A3010 RMK A01

More Conditions Fewer Conditions

10-Day Weather Forecast

Almanac

Astronomia

Sep. 20, 2014 Alba Tramonto
Ora attuale 07:00 EDT 19:15 EDT
Crepuscolo civile 06:33 EDT 19:42 EDT
Crepuscolo nautico 06:01 EDT 20:14 EDT
Crepuscolo astronomico 05:28 EDT 20:47 EDT
Luna 03:37 EDT 17:18 EDT
Estensione della luce visibile 13h 09m
Lunghezza del giorno
12h 15m
Tomorrow will be 2m 41s shorter.
Luna calante, 11% of the Moon is Illuminated
Oggi
Luna calante
Set 24
Nuovo
Ott 1
Primo quarto
Ott 8
Luna piena
Ott 15
Ultimo quarto

Gli estremi di oggi

State Highs State Lows

Community

WunderPhotos

Upload Photos

1,754,927 foto caricate!

WunderBlogs® & News

Nearby

Profondità neve

Stazione Profondità Altitudine
Non sono state evidenziate nuove nevicate

Attività sismica

Città  Distanza Mag. Data & Ora
Non sono state riportate attività sismiche nelle vicinanze.
Minimo Magnitudo Mostrato è 2.5.

Temperature delle acque costiere

Località Temperatura
Nessun dato dalle stazioni

Stazioni meteo nelle vicinanze